createdAt,value
2019-01-19T00:01:23.189Z,3.50
2019-01-19T00:04:19.364Z,3.10
2019-01-19T00:07:28.931Z,3.08
2019-01-19T00:10:43.758Z,3.45
2019-01-19T00:13:39.089Z,3.60
2019-01-19T00:16:34.385Z,3.50
2019-01-19T00:19:42.841Z,3.90
2019-01-19T00:23:00.549Z,3.70
2019-01-19T00:26:12.023Z,4.28
2019-01-19T00:28:45.502Z,3.62
2019-01-19T00:31:18.158Z,4.72
2019-01-19T00:34:45.139Z,4.45
2019-01-19T00:37:34.707Z,4.30
2019-01-19T00:41:04.972Z,4.53
2019-01-19T00:44:04.803Z,4.50
2019-01-19T00:47:25.601Z,3.98
2019-01-19T00:50:27.222Z,4.30
2019-01-19T00:53:05.362Z,4.35
2019-01-19T00:56:09.966Z,3.55
2019-01-19T00:59:05.606Z,4.55
2019-01-19T01:02:00.189Z,4.58
2019-01-19T01:04:50.557Z,3.55
2019-01-19T01:08:10.210Z,3.80
2019-01-19T01:11:16.724Z,4.30
2019-01-19T01:14:21.247Z,4.20
2019-01-19T01:17:36.481Z,3.80
2019-01-19T01:20:36.553Z,3.72
2019-01-19T01:23:28.993Z,4.33
2019-01-19T01:26:27.837Z,3.85
2019-01-19T01:29:19.098Z,3.70
2019-01-19T01:32:15.468Z,4.35
2019-01-19T01:35:04.218Z,3.75
2019-01-19T01:37:58.995Z,3.30
2019-01-19T01:41:15.470Z,4.08
2019-01-19T01:44:07.967Z,3.90
2019-01-19T01:47:17.861Z,3.58
2019-01-19T01:50:25.723Z,3.12
2019-01-19T01:53:33.291Z,3.67
2019-01-19T01:56:09.636Z,3.30
2019-01-19T01:59:13.341Z,3.60
2019-01-19T02:02:14.429Z,3.10
2019-01-19T02:05:23.320Z,2.90
2019-01-19T02:08:23.965Z,3.05
2019-01-19T02:11:19.826Z,3.60
2019-01-19T02:14:03.290Z,3.33
2019-01-19T02:17:24.145Z,2.80
2019-01-19T02:20:20.817Z,3.27
2019-01-19T02:23:35.849Z,3.12
2019-01-19T02:26:47.975Z,3.08
2019-01-19T02:29:49.181Z,3.10
2019-01-19T02:32:42.476Z,3.35
2019-01-19T02:35:48.582Z,3.52
2019-01-19T02:38:43.454Z,2.75
2019-01-19T02:42:01.350Z,2.90
2019-01-19T02:44:47.200Z,3.77
2019-01-19T02:47:42.475Z,3.55
2019-01-19T02:50:50.146Z,3.08
2019-01-19T02:54:08.330Z,3.75
2019-01-19T02:56:59.996Z,3.50
2019-01-19T02:59:59.373Z,3.72
2019-01-19T03:03:26.302Z,3.45
2019-01-19T03:06:31.552Z,3.60
2019-01-19T03:09:40.378Z,3.70
2019-01-19T03:12:47.467Z,4.45
2019-01-19T03:16:02.702Z,4.03
2019-01-19T03:18:50.622Z,3.40
2019-01-19T03:21:48.801Z,3.83
2019-01-19T03:24:45.052Z,3.35
2019-01-19T03:27:44.702Z,4.17
2019-01-19T03:30:53.474Z,4.12
2019-01-19T03:33:53.710Z,3.62
2019-01-19T03:37:14.471Z,3.35
2019-01-19T03:40:26.655Z,3.00
2019-01-19T03:43:26.096Z,3.70
2019-01-19T03:46:14.773Z,3.20
2019-01-19T03:49:06.509Z,3.40
2019-01-19T03:51:39.393Z,3.40
2019-01-19T03:54:36.470Z,3.45
2019-01-19T03:57:35.921Z,3.42
2019-01-19T04:00:35.841Z,3.80
2019-01-19T04:03:30.081Z,3.75
2019-01-19T04:06:20.200Z,3.55
2019-01-19T04:09:28.160Z,3.10
2019-01-19T04:12:27.084Z,3.92
2019-01-19T04:15:17.245Z,3.60
2019-01-19T04:18:09.169Z,3.67
2019-01-19T04:21:00.026Z,3.90
2019-01-19T04:23:26.906Z,4.20
2019-01-19T04:25:58.293Z,3.20
2019-01-19T04:28:25.638Z,4.10
2019-01-19T04:30:52.585Z,3.70
2019-01-19T04:33:19.493Z,3.87
2019-01-19T04:35:46.483Z,4.53
2019-01-19T04:38:13.479Z,4.40
2019-01-19T04:40:40.466Z,3.20
2019-01-19T04:43:07.473Z,3.62
2019-01-19T04:45:34.554Z,3.65
2019-01-19T04:48:01.493Z,4.55
2019-01-19T04:50:28.585Z,4.58
2019-01-19T04:52:55.578Z,3.60
2019-01-19T04:55:22.553Z,4.65
2019-01-19T04:57:49.558Z,4.42
2019-01-19T05:00:17.914Z,4.25
2019-01-19T05:02:45.127Z,3.45
2019-01-19T05:05:12.340Z,3.95
2019-01-19T05:07:39.254Z,4.00
2019-01-19T05:10:06.671Z,3.72
2019-01-19T05:12:33.755Z,5.80
2019-01-19T05:15:00.828Z,4.70
2019-01-19T05:17:27.857Z,4.70
2019-01-19T05:19:54.894Z,3.83
2019-01-19T05:22:21.870Z,4.10
2019-01-19T05:24:48.851Z,4.00
2019-01-19T05:27:15.911Z,4.95
2019-01-19T05:29:42.927Z,4.80
2019-01-19T05:32:11.216Z,4.50
2019-01-19T05:34:38.354Z,4.00
2019-01-19T05:37:05.385Z,4.33
2019-01-19T05:39:32.358Z,3.85
2019-01-19T05:41:59.228Z,4.92
2019-01-19T05:44:26.206Z,4.37
2019-01-19T05:46:53.221Z,3.52
2019-01-19T05:49:20.322Z,4.40
2019-01-19T05:51:47.253Z,4.37
2019-01-19T05:54:14.279Z,5.03
2019-01-19T05:56:41.269Z,4.03
2019-01-19T05:59:08.231Z,4.50
2019-01-19T06:01:35.212Z,4.10
2019-01-19T06:04:02.379Z,4.30
2019-01-19T06:06:29.403Z,3.98
2019-01-19T06:08:56.499Z,3.60
2019-01-19T06:11:23.683Z,4.50
2019-01-19T06:13:52.183Z,4.00
2019-01-19T06:16:19.210Z,4.92
2019-01-19T06:18:46.701Z,4.50
2019-01-19T06:21:14.505Z,3.98
2019-01-19T06:23:41.493Z,3.20
2019-01-19T06:26:08.830Z,4.15
2019-01-19T06:28:37.151Z,3.45
2019-01-19T06:31:04.201Z,4.40
2019-01-19T06:33:31.118Z,3.58
2019-01-19T06:35:58.098Z,3.95
2019-01-19T06:38:25.065Z,3.35
2019-01-19T06:40:52.057Z,4.03
2019-01-19T06:43:19.157Z,3.30
2019-01-19T06:45:46.186Z,3.17
2019-01-19T06:48:13.204Z,3.47
2019-01-19T06:50:40.303Z,4.20
2019-01-19T06:53:07.262Z,3.60
2019-01-19T06:55:35.413Z,3.80
2019-01-19T06:58:02.308Z,3.85
2019-01-19T07:00:29.432Z,3.67
2019-01-19T07:02:56.804Z,3.83
2019-01-19T07:05:23.954Z,4.12
2019-01-19T07:07:51.180Z,6.03
2019-01-19T07:10:20.037Z,4.62
2019-01-19T07:12:47.070Z,4.22
2019-01-19T07:15:14.145Z,3.70
2019-01-19T07:17:41.189Z,4.70
2019-01-19T07:20:11.420Z,4.42
2019-01-19T07:22:41.030Z,3.98
2019-01-19T07:25:07.988Z,5.20
2019-01-19T07:27:35.053Z,4.92
2019-01-19T07:30:02.668Z,5.37
2019-01-19T07:32:29.561Z,4.70
2019-01-19T07:34:56.513Z,5.10
2019-01-19T07:37:23.409Z,4.20
2019-01-19T07:39:50.374Z,4.22
2019-01-19T07:42:17.317Z,4.28
2019-01-19T07:44:44.393Z,5.22
2019-01-19T07:47:11.728Z,4.62
2019-01-19T07:49:38.776Z,10.82
2019-01-19T07:52:05.804Z,9.65
2019-01-19T07:54:32.682Z,5.05
2019-01-19T07:56:59.715Z,3.98
2019-01-19T07:59:26.613Z,4.70
2019-01-19T08:01:53.684Z,4.20
2019-01-19T08:04:20.844Z,3.80
2019-01-19T08:06:47.825Z,4.10
2019-01-19T08:09:14.826Z,4.78
2019-01-19T08:11:41.802Z,5.00
2019-01-19T08:14:08.847Z,4.40
2019-01-19T08:16:38.806Z,5.35
2019-01-19T08:19:05.881Z,4.78
2019-01-19T08:21:33.114Z,4.58
2019-01-19T08:24:00.219Z,4.78
2019-01-19T08:26:27.323Z,4.53
2019-01-19T08:28:54.361Z,4.17
2019-01-19T08:31:21.336Z,5.75
2019-01-19T08:33:48.569Z,4.75
2019-01-19T08:36:15.991Z,4.70
2019-01-19T08:38:43.033Z,5.00
2019-01-19T08:41:10.003Z,6.00
2019-01-19T08:43:38.946Z,5.78
2019-01-19T08:46:06.043Z,4.75
2019-01-19T08:48:33.113Z,4.90
2019-01-19T08:51:00.287Z,5.80
2019-01-19T08:53:27.367Z,5.40
2019-01-19T08:55:54.533Z,5.47
2019-01-19T08:58:21.671Z,6.25
2019-01-19T09:00:48.839Z,6.37
2019-01-19T09:03:15.746Z,6.12
2019-01-19T09:05:42.755Z,5.87
2019-01-19T09:08:09.772Z,7.95
2019-01-19T09:10:36.924Z,6.60
2019-01-19T09:13:03.989Z,5.83
2019-01-19T09:15:34.905Z,6.45
2019-01-19T09:18:02.071Z,4.92
2019-01-19T09:20:29.163Z,5.10
2019-01-19T09:22:58.149Z,5.62
2019-01-19T09:25:25.387Z,5.25
2019-01-19T09:27:52.345Z,5.72
2019-01-19T09:30:19.445Z,5.20
2019-01-19T09:32:46.799Z,4.97
2019-01-19T09:35:13.974Z,4.67
2019-01-19T09:37:41.135Z,4.90
2019-01-19T09:40:09.301Z,4.85
2019-01-19T09:42:36.341Z,4.95
2019-01-19T09:45:04.086Z,4.80
2019-01-19T09:47:31.296Z,4.85
2019-01-19T09:49:58.321Z,5.30
2019-01-19T09:52:25.328Z,5.08
2019-01-19T09:54:52.488Z,4.67
2019-01-19T09:57:19.463Z,5.12
2019-01-19T09:59:46.406Z,5.35
2019-01-19T10:02:13.479Z,5.20
2019-01-19T10:04:41.575Z,5.90
2019-01-19T10:07:08.649Z,4.95
2019-01-19T10:09:35.561Z,5.40
2019-01-19T10:12:02.806Z,5.42
2019-01-19T10:14:29.932Z,5.00
2019-01-19T10:16:57.150Z,4.67
2019-01-19T10:19:24.212Z,4.53
2019-01-19T10:21:51.240Z,4.72
2019-01-19T10:24:18.518Z,4.67
2019-01-19T10:26:45.588Z,4.50
2019-01-19T10:29:13.195Z,4.60
2019-01-19T10:31:40.149Z,4.85
2019-01-19T10:34:07.149Z,4.83
2019-01-19T10:36:34.133Z,4.47
2019-01-19T10:39:01.184Z,4.20
2019-01-19T10:41:28.186Z,5.20
2019-01-19T10:43:55.282Z,4.85
2019-01-19T10:46:22.188Z,4.75
2019-01-19T10:48:49.187Z,4.50
2019-01-19T10:51:16.324Z,5.28
2019-01-19T10:53:43.361Z,3.90
2019-01-19T10:56:10.440Z,4.50
2019-01-19T10:58:37.530Z,4.72
2019-01-19T11:01:04.537Z,4.45
2019-01-19T11:03:31.541Z,4.83
2019-01-19T11:05:58.471Z,4.53
2019-01-19T11:08:25.718Z,4.78
2019-01-19T11:10:52.769Z,4.42
2019-01-19T11:13:19.817Z,4.50
2019-01-19T11:15:46.885Z,4.80
2019-01-19T11:18:13.991Z,4.80
2019-01-19T11:20:41.194Z,4.37
2019-01-19T11:23:08.330Z,4.33
2019-01-19T11:25:35.468Z,4.70
2019-01-19T11:28:02.972Z,4.75
2019-01-19T11:30:30.313Z,5.08
2019-01-19T11:32:57.346Z,3.80
2019-01-19T11:35:24.510Z,4.90
2019-01-19T11:37:51.527Z,4.45
2019-01-19T11:40:26.513Z,4.83
2019-01-19T11:42:53.502Z,4.70
2019-01-19T11:45:21.043Z,4.55
2019-01-19T11:47:48.137Z,4.33
2019-01-19T11:50:15.564Z,4.22
2019-01-19T11:52:42.756Z,5.37
2019-01-19T11:55:11.741Z,4.95
2019-01-19T11:57:38.759Z,4.87
2019-01-19T12:00:10.335Z,5.00
2019-01-19T12:02:37.397Z,4.33
2019-01-19T12:05:04.808Z,4.50
2019-01-19T12:07:31.783Z,4.47
2019-01-19T12:09:58.833Z,5.08
2019-01-19T12:12:25.930Z,5.47
2019-01-19T12:14:53.010Z,5.12
2019-01-19T12:17:20.061Z,4.62
2019-01-19T12:19:47.097Z,4.90
2019-01-19T12:22:14.136Z,5.10
2019-01-19T12:24:41.115Z,4.40
2019-01-19T12:27:08.125Z,5.00
2019-01-19T12:29:35.095Z,4.60
2019-01-19T12:32:02.115Z,4.60
2019-01-19T12:34:29.171Z,4.85
2019-01-19T12:36:56.274Z,4.28
2019-01-19T12:39:23.167Z,3.65
2019-01-19T12:41:50.083Z,4.37
2019-01-19T12:44:17.161Z,4.50
2019-01-19T12:46:44.236Z,4.37
2019-01-19T12:49:11.283Z,4.90
2019-01-19T12:51:38.457Z,5.30
2019-01-19T12:54:05.479Z,5.12
2019-01-19T12:56:32.524Z,5.08
2019-01-19T12:58:59.569Z,4.28
2019-01-19T13:01:26.697Z,4.80
2019-01-19T13:03:53.678Z,5.03
2019-01-19T13:06:44.280Z,4.62
2019-01-19T13:09:44.749Z,4.40
2019-01-19T13:12:36.961Z,4.92
2019-01-19T13:15:59.067Z,4.85
2019-01-19T13:19:13.701Z,4.58
2019-01-19T13:22:22.819Z,4.70
2019-01-19T13:25:31.744Z,5.17
2019-01-19T13:28:33.821Z,5.25
2019-01-19T13:31:45.627Z,5.97
2019-01-19T13:35:19.011Z,6.25
2019-01-19T13:38:12.683Z,5.70
2019-01-19T13:41:13.105Z,5.42
2019-01-19T13:44:30.994Z,5.45
2019-01-19T13:47:47.433Z,5.33
2019-01-19T13:50:55.355Z,5.35
2019-01-19T13:53:49.233Z,5.12
2019-01-19T13:56:51.496Z,5.80
2019-01-19T13:59:33.680Z,5.25
2019-01-19T14:02:38.541Z,5.47
2019-01-19T14:05:28.161Z,5.85
2019-01-19T14:08:26.697Z,6.15
2019-01-19T14:11:24.347Z,5.85
2019-01-19T14:14:25.640Z,5.60
2019-01-19T14:17:22.963Z,6.42
2019-01-19T14:20:01.391Z,6.03
2019-01-19T14:22:56.489Z,5.10
2019-01-19T14:26:05.291Z,6.50
2019-01-19T14:29:14.158Z,5.50
2019-01-19T14:32:34.961Z,6.08
2019-01-19T14:35:29.112Z,7.00
2019-01-19T14:38:47.383Z,6.47
2019-01-19T14:41:51.352Z,6.28
2019-01-19T14:45:13.818Z,5.92
2019-01-19T14:48:29.109Z,6.42
2019-01-19T14:51:31.946Z,6.45
2019-01-19T14:54:31.486Z,7.70
2019-01-19T14:57:34.441Z,7.40
2019-01-19T15:00:42.365Z,5.70
2019-01-19T15:03:26.462Z,5.95
2019-01-19T15:06:20.317Z,5.20
2019-01-19T15:09:25.850Z,4.95
2019-01-19T15:12:29.774Z,5.75
2019-01-19T15:15:31.532Z,6.70
2019-01-19T15:18:39.533Z,7.22
2019-01-19T15:21:50.665Z,6.35
2019-01-19T15:24:23.664Z,6.10
2019-01-19T15:27:26.512Z,5.08
2019-01-19T15:30:23.552Z,6.15
2019-01-19T15:33:30.377Z,5.67
2019-01-19T15:37:00.487Z,4.72
2019-01-19T15:40:08.498Z,5.00
2019-01-19T15:43:17.313Z,4.00
2019-01-19T15:46:20.611Z,4.80
2019-01-19T15:49:06.678Z,4.78
2019-01-19T15:52:24.809Z,4.33
2019-01-19T15:55:29.430Z,4.33
2019-01-19T15:58:34.846Z,4.40
2019-01-19T16:01:14.999Z,5.47
2019-01-19T16:04:29.423Z,4.40
2019-01-19T16:07:39.887Z,4.83
2019-01-19T16:11:10.053Z,4.53
2019-01-19T16:13:57.138Z,4.33
2019-01-19T16:16:54.325Z,4.83
2019-01-19T16:20:11.987Z,4.80
2019-01-19T16:23:10.342Z,5.25
2019-01-19T16:26:19.925Z,5.28
2019-01-19T16:29:37.849Z,4.95
2019-01-19T16:32:49.731Z,4.97
2019-01-19T16:35:50.745Z,5.17
2019-01-19T16:38:32.151Z,4.95
2019-01-19T16:41:33.609Z,5.28
2019-01-19T16:44:36.021Z,5.12
2019-01-19T16:47:44.526Z,5.62
2019-01-19T16:50:40.192Z,6.90
2019-01-19T16:53:36.376Z,7.58
2019-01-19T16:56:49.156Z,6.92
2019-01-19T16:59:39.894Z,7.53
2019-01-19T17:02:36.763Z,7.28
2019-01-19T17:05:37.175Z,8.05
2019-01-19T17:08:53.002Z,7.70
2019-01-19T17:12:20.230Z,7.70
2019-01-19T17:15:28.224Z,7.53
2019-01-19T17:18:37.798Z,8.08
2019-01-19T17:21:42.497Z,8.53
2019-01-19T17:25:02.971Z,9.05
2019-01-19T17:27:49.825Z,8.53
2019-01-19T17:30:58.536Z,7.75
2019-01-19T17:34:03.801Z,7.22
2019-01-19T17:37:10.720Z,7.70
2019-01-19T17:40:16.894Z,9.03
2019-01-19T17:43:31.604Z,8.18
2019-01-19T17:46:21.063Z,7.72
2019-01-19T17:49:13.039Z,7.87
2019-01-19T17:52:26.474Z,6.53
2019-01-19T17:55:30.224Z,7.12
2019-01-19T17:58:19.825Z,7.60
2019-01-19T18:01:00.515Z,7.10
2019-01-19T18:03:47.668Z,8.18
2019-01-19T18:06:37.421Z,8.30
2019-01-19T18:09:49.905Z,10.65
2019-01-19T18:12:42.004Z,8.73
2019-01-19T18:15:57.181Z,9.15
2019-01-19T18:18:51.952Z,8.50
2019-01-19T18:21:39.950Z,10.38
2019-01-19T18:24:46.921Z,9.15
2019-01-19T18:27:30.282Z,7.25
2019-01-19T18:30:50.513Z,6.75
2019-01-19T18:34:10.677Z,8.78
2019-01-19T18:37:27.616Z,9.48
2019-01-19T18:40:17.411Z,8.25
2019-01-19T18:43:44.467Z,8.03
2019-01-19T18:46:37.240Z,8.38
2019-01-19T18:49:32.063Z,9.43
2019-01-19T18:52:35.987Z,18.65
2019-01-19T18:55:14.601Z,8.03
2019-01-19T18:58:18.598Z,7.70
2019-01-19T19:01:05.301Z,8.18
2019-01-19T19:04:14.272Z,9.00
2019-01-19T19:07:22.925Z,8.45
2019-01-19T19:10:26.828Z,7.25
2019-01-19T19:13:47.970Z,6.67
2019-01-19T19:16:44.281Z,6.85
2019-01-19T19:19:33.911Z,7.72
2019-01-19T19:22:46.858Z,8.30
2019-01-19T19:26:03.805Z,6.30
2019-01-19T19:29:07.536Z,6.28
2019-01-19T19:32:13.213Z,5.75
2019-01-19T19:35:04.430Z,5.95
2019-01-19T19:37:50.367Z,6.67
2019-01-19T19:40:53.976Z,5.72
2019-01-19T19:43:58.469Z,5.67
2019-01-19T19:47:03.211Z,6.17
2019-01-19T19:50:11.186Z,5.90
2019-01-19T19:52:38.842Z,6.22
2019-01-19T19:55:04.907Z,5.20
2019-01-19T19:57:31.911Z,6.25
2019-01-19T19:59:58.897Z,6.17
2019-01-19T20:02:25.947Z,7.00
2019-01-19T20:04:52.963Z,5.85
2019-01-19T20:07:20.048Z,5.87
2019-01-19T20:09:47.275Z,5.42
2019-01-19T20:12:14.549Z,5.70
2019-01-19T20:14:41.704Z,6.62
2019-01-19T20:17:08.928Z,5.97
2019-01-19T20:19:36.169Z,5.75
2019-01-19T20:22:03.474Z,6.65
2019-01-19T20:24:30.500Z,6.62
2019-01-19T20:26:57.617Z,8.13
2019-01-19T20:29:24.779Z,5.87
2019-01-19T20:31:51.832Z,7.05
2019-01-19T20:34:18.881Z,6.20
2019-01-19T20:36:45.901Z,6.45
2019-01-19T20:39:13.182Z,6.65
2019-01-19T20:41:40.519Z,6.33
2019-01-19T20:44:07.610Z,6.40
2019-01-19T20:46:35.162Z,7.20
2019-01-19T20:49:04.941Z,6.87
2019-01-19T20:51:32.000Z,7.20
2019-01-19T20:53:59.110Z,5.92
2019-01-19T20:56:27.390Z,5.92
2019-01-19T20:58:57.177Z,6.37
2019-01-19T21:01:24.277Z,5.87
2019-01-19T21:03:51.285Z,5.95
2019-01-19T21:06:18.706Z,6.55
2019-01-19T21:08:48.564Z,6.12
2019-01-19T21:11:16.192Z,6.17
2019-01-19T21:13:43.655Z,6.50
2019-01-19T21:16:11.390Z,6.65
2019-01-19T21:18:38.890Z,7.00
2019-01-19T21:21:06.390Z,6.58
2019-01-19T21:23:37.850Z,6.15
2019-01-19T21:26:04.900Z,6.90
2019-01-19T21:28:31.896Z,6.22
2019-01-19T21:30:59.374Z,6.12
2019-01-19T21:33:26.976Z,5.70
2019-01-19T21:35:53.980Z,6.33
2019-01-19T21:38:25.414Z,5.62
2019-01-19T21:40:52.426Z,5.87
2019-01-19T21:43:20.189Z,6.37
2019-01-19T21:45:47.287Z,5.62
2019-01-19T21:48:14.378Z,5.50
2019-01-19T21:50:41.401Z,6.50
2019-01-19T21:53:08.449Z,6.95
2019-01-19T21:55:35.506Z,6.25
2019-01-19T21:58:02.753Z,7.03
2019-01-19T22:00:30.029Z,5.87
2019-01-19T22:02:57.217Z,6.08
2019-01-19T22:05:24.307Z,6.55
2019-01-19T22:07:51.365Z,6.28
2019-01-19T22:10:18.522Z,5.55
2019-01-19T22:12:45.951Z,5.97
2019-01-19T22:15:14.622Z,5.33
2019-01-19T22:17:41.873Z,6.97
2019-01-19T22:20:11.359Z,9.40
2019-01-19T22:22:38.585Z,6.35
2019-01-19T22:25:06.126Z,6.53
2019-01-19T22:27:36.611Z,5.30
2019-01-19T22:30:06.545Z,5.60
2019-01-19T22:32:35.106Z,6.67
2019-01-19T22:35:15.384Z,6.22
2019-01-19T22:37:47.233Z,5.40
2019-01-19T22:40:15.977Z,6.45
2019-01-19T22:42:43.061Z,5.97
2019-01-19T22:45:12.064Z,6.45
2019-01-19T22:47:39.381Z,6.22
2019-01-19T22:50:10.537Z,6.97
2019-01-19T22:52:37.609Z,5.90
2019-01-19T22:55:04.779Z,6.17
2019-01-19T22:57:32.133Z,5.72
2019-01-19T22:59:59.308Z,6.37
2019-01-19T23:02:26.813Z,5.85
2019-01-19T23:04:54.053Z,6.17
2019-01-19T23:07:22.514Z,6.45
2019-01-19T23:09:49.778Z,6.12
2019-01-19T23:12:16.765Z,6.30
2019-01-19T23:17:12.147Z,8.73
2019-01-19T23:19:39.167Z,6.25
2019-01-19T23:22:06.262Z,6.08
2019-01-19T23:24:33.194Z,5.20
2019-01-19T23:27:01.542Z,5.35
2019-01-19T23:29:28.612Z,5.42
2019-01-19T23:31:55.776Z,5.60
2019-01-19T23:34:22.851Z,5.00
2019-01-19T23:36:49.932Z,5.25
2019-01-19T23:39:16.917Z,6.03
2019-01-19T23:41:44.039Z,6.20
2019-01-19T23:44:11.029Z,5.40
2019-01-19T23:46:37.933Z,5.78
2019-01-19T23:49:04.873Z,5.47
2019-01-19T23:51:31.838Z,5.42
2019-01-19T23:53:58.781Z,5.37
2019-01-19T23:56:25.841Z,5.25
2019-01-19T23:58:52.736Z,5.22
